sensor_id;sensor_type;location;lat;lon;timestamp;P1;durP1;ratioP1;P2;durP2;ratioP2
30215;SDS011;17028;47.642;8.070;2022-09-11T00:01:43;1.83;;;0.77;;
30215;SDS011;17028;47.642;8.070;2022-09-11T00:06:44;1.52;;;0.60;;
30215;SDS011;17028;47.642;8.070;2022-09-11T00:11:45;0.93;;;0.80;;
30215;SDS011;17028;47.642;8.070;2022-09-11T00:16:46;0.93;;;0.70;;
30215;SDS011;17028;47.642;8.070;2022-09-11T00:21:47;2.33;;;0.90;;
30215;SDS011;17028;47.642;8.070;2022-09-11T00:26:50;2.17;;;0.70;;
30215;SDS011;17028;47.642;8.070;2022-09-11T00:31:51;2.00;;;0.80;;
30215;SDS011;17028;47.642;8.070;2022-09-11T00:36:52;1.58;;;0.68;;
30215;SDS011;17028;47.642;8.070;2022-09-11T00:41:53;1.73;;;0.90;;
30215;SDS011;17028;47.642;8.070;2022-09-11T00:46:56;1.38;;;0.73;;
30215;SDS011;17028;47.642;8.070;2022-09-11T00:57:14;1.92;;;0.70;;
30215;SDS011;17028;47.642;8.070;2022-09-11T01:02:18;1.77;;;0.90;;
30215;SDS011;17028;47.642;8.070;2022-09-11T01:07:20;1.42;;;0.80;;
30215;SDS011;17028;47.642;8.070;2022-09-11T01:18:16;3.67;;;0.95;;
30215;SDS011;17028;47.642;8.070;2022-09-11T01:28:54;1.53;;;0.90;;
30215;SDS011;17028;47.642;8.070;2022-09-11T01:34:08;2.17;;;0.90;;
30215;SDS011;17028;47.642;8.070;2022-09-11T01:39:15;1.88;;;0.88;;
30215;SDS011;17028;47.642;8.070;2022-09-11T01:44:24;1.85;;;0.93;;
30215;SDS011;17028;47.642;8.070;2022-09-11T01:54:45;2.13;;;0.95;;
30215;SDS011;17028;47.642;8.070;2022-09-11T01:59:52;2.67;;;1.00;;
30215;SDS011;17028;47.642;8.070;2022-09-11T02:04:59;2.15;;;0.85;;
30215;SDS011;17028;47.642;8.070;2022-09-11T02:10:11;2.88;;;1.20;;
30215;SDS011;17028;47.642;8.070;2022-09-11T02:15:20;1.73;;;1.10;;
30215;SDS011;17028;47.642;8.070;2022-09-11T02:20:25;1.60;;;0.90;;
30215;SDS011;17028;47.642;8.070;2022-09-11T02:25:26;1.60;;;0.88;;
30215;SDS011;17028;47.642;8.070;2022-09-11T02:30:30;2.55;;;1.05;;
30215;SDS011;17028;47.642;8.070;2022-09-11T02:35:36;1.75;;;0.82;;
30215;SDS011;17028;47.642;8.070;2022-09-11T02:40:59;1.80;;;0.93;;
30215;SDS011;17028;47.642;8.070;2022-09-11T02:56:40;3.40;;;1.10;;
30215;SDS011;17028;47.642;8.070;2022-09-11T03:02:03;3.08;;;1.02;;
30215;SDS011;17028;47.642;8.070;2022-09-11T03:07:12;6.47;;;1.27;;
30215;SDS011;17028;47.642;8.070;2022-09-11T03:12:13;3.35;;;1.38;;
30215;SDS011;17028;47.642;8.070;2022-09-11T03:17:15;3.25;;;1.10;;
30215;SDS011;17028;47.642;8.070;2022-09-11T03:22:16;3.22;;;1.30;;
30215;SDS011;17028;47.642;8.070;2022-09-11T03:27:18;4.68;;;1.20;;
30215;SDS011;17028;47.642;8.070;2022-09-11T03:32:19;4.32;;;1.58;;
30215;SDS011;17028;47.642;8.070;2022-09-11T03:37:22;2.65;;;1.10;;
30215;SDS011;17028;47.642;8.070;2022-09-11T03:42:23;2.38;;;1.00;;
30215;SDS011;17028;47.642;8.070;2022-09-11T03:47:24;2.47;;;1.10;;
30215;SDS011;17028;47.642;8.070;2022-09-11T03:52:28;3.05;;;1.10;;
30215;SDS011;17028;47.642;8.070;2022-09-11T03:57:34;2.08;;;1.00;;
30215;SDS011;17028;47.642;8.070;2022-09-11T04:02:36;2.25;;;1.05;;
30215;SDS011;17028;47.642;8.070;2022-09-11T04:07:37;4.65;;;1.55;;
30215;SDS011;17028;47.642;8.070;2022-09-11T04:12:39;2.60;;;1.33;;
30215;SDS011;17028;47.642;8.070;2022-09-11T04:17:42;2.22;;;1.10;;
30215;SDS011;17028;47.642;8.070;2022-09-11T04:22:44;2.72;;;0.98;;
30215;SDS011;17028;47.642;8.070;2022-09-11T04:27:46;1.38;;;0.90;;
30215;SDS011;17028;47.642;8.070;2022-09-11T04:32:50;1.17;;;0.88;;
30215;SDS011;17028;47.642;8.070;2022-09-11T04:37:51;3.72;;;1.15;;
30215;SDS011;17028;47.642;8.070;2022-09-11T04:42:52;2.47;;;1.10;;
30215;SDS011;17028;47.642;8.070;2022-09-11T04:47:54;2.83;;;1.08;;
30215;SDS011;17028;47.642;8.070;2022-09-11T04:52:56;3.03;;;1.05;;
30215;SDS011;17028;47.642;8.070;2022-09-11T04:57:58;3.33;;;1.50;;
30215;SDS011;17028;47.642;8.070;2022-09-11T05:03:00;3.25;;;1.50;;
30215;SDS011;17028;47.642;8.070;2022-09-11T05:08:01;4.55;;;1.83;;
30215;SDS011;17028;47.642;8.070;2022-09-11T05:13:04;2.35;;;1.33;;
30215;SDS011;17028;47.642;8.070;2022-09-11T05:18:05;3.25;;;1.38;;
30215;SDS011;17028;47.642;8.070;2022-09-11T05:23:07;1.88;;;1.10;;
30215;SDS011;17028;47.642;8.070;2022-09-11T05:28:08;1.70;;;1.10;;
30215;SDS011;17028;47.642;8.070;2022-09-11T05:33:09;1.33;;;0.98;;
30215;SDS011;17028;47.642;8.070;2022-09-11T05:38:14;1.48;;;1.10;;
30215;SDS011;17028;47.642;8.070;2022-09-11T05:43:15;2.58;;;1.00;;
30215;SDS011;17028;47.642;8.070;2022-09-11T05:48:17;2.72;;;1.27;;
30215;SDS011;17028;47.642;8.070;2022-09-11T05:53:19;2.88;;;1.40;;
30215;SDS011;17028;47.642;8.070;2022-09-11T05:58:21;1.63;;;1.20;;
30215;SDS011;17028;47.642;8.070;2022-09-11T06:03:22;1.88;;;1.10;;
30215;SDS011;17028;47.642;8.070;2022-09-11T06:08:23;2.40;;;1.20;;
30215;SDS011;17028;47.642;8.070;2022-09-11T06:13:27;1.73;;;1.00;;
30215;SDS011;17028;47.642;8.070;2022-09-11T06:18:31;1.20;;;0.98;;
30215;SDS011;17028;47.642;8.070;2022-09-11T06:23:33;1.65;;;1.10;;
30215;SDS011;17028;47.642;8.070;2022-09-11T06:28:35;4.97;;;1.45;;
30215;SDS011;17028;47.642;8.070;2022-09-11T06:33:38;2.15;;;1.27;;
30215;SDS011;17028;47.642;8.070;2022-09-11T06:38:40;4.63;;;1.60;;
30215;SDS011;17028;47.642;8.070;2022-09-11T06:43:46;6.97;;;1.65;;
30215;SDS011;17028;47.642;8.070;2022-09-11T06:48:48;2.28;;;1.45;;
30215;SDS011;17028;47.642;8.070;2022-09-11T06:53:55;2.87;;;1.30;;
30215;SDS011;17028;47.642;8.070;2022-09-11T06:58:59;2.25;;;1.20;;
30215;SDS011;17028;47.642;8.070;2022-09-11T07:04:01;3.22;;;1.15;;
30215;SDS011;17028;47.642;8.070;2022-09-11T07:09:04;1.95;;;1.23;;
30215;SDS011;17028;47.642;8.070;2022-09-11T07:14:15;2.80;;;1.40;;
30215;SDS011;17028;47.642;8.070;2022-09-11T07:19:21;2.47;;;1.42;;
30215;SDS011;17028;47.642;8.070;2022-09-11T07:24:25;2.17;;;1.20;;
30215;SDS011;17028;47.642;8.070;2022-09-11T07:29:28;2.00;;;1.10;;
30215;SDS011;17028;47.642;8.070;2022-09-11T07:34:30;3.90;;;1.45;;
30215;SDS011;17028;47.642;8.070;2022-09-11T07:39:35;5.78;;;1.35;;
30215;SDS011;17028;47.642;8.070;2022-09-11T07:44:44;1.55;;;0.90;;
30215;SDS011;17028;47.642;8.070;2022-09-11T07:49:46;1.52;;;0.93;;
30215;SDS011;17028;47.642;8.070;2022-09-11T07:54:47;3.17;;;1.17;;
30215;SDS011;17028;47.642;8.070;2022-09-11T07:59:50;2.08;;;1.10;;
30215;SDS011;17028;47.642;8.070;2022-09-11T08:04:52;2.88;;;1.02;;
30215;SDS011;17028;47.642;8.070;2022-09-11T08:09:56;2.00;;;0.93;;
30215;SDS011;17028;47.642;8.070;2022-09-11T08:14:57;1.92;;;1.00;;
30215;SDS011;17028;47.642;8.070;2022-09-11T08:19:58;2.03;;;1.00;;
30215;SDS011;17028;47.642;8.070;2022-09-11T08:25:00;1.73;;;1.00;;
30215;SDS011;17028;47.642;8.070;2022-09-11T08:30:01;2.28;;;1.00;;
30215;SDS011;17028;47.642;8.070;2022-09-11T08:35:02;2.28;;;0.90;;
30215;SDS011;17028;47.642;8.070;2022-09-11T08:40:03;2.35;;;0.90;;
30215;SDS011;17028;47.642;8.070;2022-09-11T08:45:06;2.08;;;1.10;;
30215;SDS011;17028;47.642;8.070;2022-09-11T08:50:21;1.80;;;0.80;;
30215;SDS011;17028;47.642;8.070;2022-09-11T08:55:28;1.35;;;0.80;;
30215;SDS011;17028;47.642;8.070;2022-09-11T09:00:42;2.78;;;0.88;;
30215;SDS011;17028;47.642;8.070;2022-09-11T09:06:50;1.55;;;0.80;;
30215;SDS011;17028;47.642;8.070;2022-09-11T09:17:12;1.98;;;0.80;;
30215;SDS011;17028;47.642;8.070;2022-09-11T09:27:44;1.75;;;0.88;;
30215;SDS011;17028;47.642;8.070;2022-09-11T09:32:50;1.63;;;0.80;;
30215;SDS011;17028;47.642;8.070;2022-09-11T09:37:58;3.63;;;1.08;;
30215;SDS011;17028;47.642;8.070;2022-09-11T09:48:10;3.13;;;0.93;;
30215;SDS011;17028;47.642;8.070;2022-09-11T09:53:16;1.90;;;0.90;;
30215;SDS011;17028;47.642;8.070;2022-09-11T09:58:35;4.60;;;1.50;;
30215;SDS011;17028;47.642;8.070;2022-09-11T10:03:45;2.92;;;0.90;;
30215;SDS011;17028;47.642;8.070;2022-09-11T10:09:24;4.00;;;1.05;;
30215;SDS011;17028;47.642;8.070;2022-09-11T10:14:31;3.55;;;1.13;;
30215;SDS011;17028;47.642;8.070;2022-09-11T10:19:38;5.30;;;1.50;;
30215;SDS011;17028;47.642;8.070;2022-09-11T10:24:41;4.60;;;1.03;;
30215;SDS011;17028;47.642;8.070;2022-09-11T10:29:46;2.60;;;1.08;;
30215;SDS011;17028;47.642;8.070;2022-09-11T10:34:51;3.65;;;1.10;;
30215;SDS011;17028;47.642;8.070;2022-09-11T10:39:52;2.63;;;0.98;;
30215;SDS011;17028;47.642;8.070;2022-09-11T10:45:10;3.10;;;1.00;;
30215;SDS011;17028;47.642;8.070;2022-09-11T10:55:17;3.17;;;0.90;;
30215;SDS011;17028;47.642;8.070;2022-09-11T11:22:11;2.17;;;1.00;;
30215;SDS011;17028;47.642;8.070;2022-09-11T11:27:20;1.95;;;0.90;;
30215;SDS011;17028;47.642;8.070;2022-09-11T11:32:54;2.97;;;0.90;;
30215;SDS011;17028;47.642;8.070;2022-09-11T11:44:02;2.33;;;0.93;;
30215;SDS011;17028;47.642;8.070;2022-09-11T11:49:14;2.95;;;1.10;;
30215;SDS011;17028;47.642;8.070;2022-09-11T11:54:24;1.95;;;0.73;;
30215;SDS011;17028;47.642;8.070;2022-09-11T12:05:14;2.63;;;1.00;;
30215;SDS011;17028;47.642;8.070;2022-09-11T12:10:21;3.05;;;0.90;;
30215;SDS011;17028;47.642;8.070;2022-09-11T12:15:29;1.60;;;0.80;;
30215;SDS011;17028;47.642;8.070;2022-09-11T12:20:35;0.97;;;0.67;;
30215;SDS011;17028;47.642;8.070;2022-09-11T12:25:47;2.55;;;1.00;;
30215;SDS011;17028;47.642;8.070;2022-09-11T12:31:06;3.03;;;0.90;;
30215;SDS011;17028;47.642;8.070;2022-09-11T12:36:21;1.63;;;0.80;;
30215;SDS011;17028;47.642;8.070;2022-09-11T12:41:31;1.60;;;0.90;;
30215;SDS011;17028;47.642;8.070;2022-09-11T12:51:36;0.95;;;0.80;;
30215;SDS011;17028;47.642;8.070;2022-09-11T12:56:45;1.38;;;0.82;;
30215;SDS011;17028;47.642;8.070;2022-09-11T13:01:52;1.35;;;0.60;;
30215;SDS011;17028;47.642;8.070;2022-09-11T13:06:54;1.35;;;0.80;;
30215;SDS011;17028;47.642;8.070;2022-09-11T13:22:33;1.20;;;0.60;;
30215;SDS011;17028;47.642;8.070;2022-09-11T13:27:42;1.95;;;0.75;;
30215;SDS011;17028;47.642;8.070;2022-09-11T13:32:46;2.55;;;0.90;;
30215;SDS011;17028;47.642;8.070;2022-09-11T13:42:51;1.95;;;0.70;;
30215;SDS011;17028;47.642;8.070;2022-09-11T13:47:53;2.22;;;0.82;;
30215;SDS011;17028;47.642;8.070;2022-09-11T13:52:54;1.17;;;0.65;;
30215;SDS011;17028;47.642;8.070;2022-09-11T13:57:59;1.23;;;0.73;;
30215;SDS011;17028;47.642;8.070;2022-09-11T14:03:02;2.58;;;0.85;;
30215;SDS011;17028;47.642;8.070;2022-09-11T14:08:17;1.87;;;0.90;;
30215;SDS011;17028;47.642;8.070;2022-09-11T14:18:55;1.83;;;0.75;;
30215;SDS011;17028;47.642;8.070;2022-09-11T14:24:03;3.40;;;0.85;;
30215;SDS011;17028;47.642;8.070;2022-09-11T14:29:27;1.25;;;0.70;;
30215;SDS011;17028;47.642;8.070;2022-09-11T14:34:31;1.98;;;0.60;;
30215;SDS011;17028;47.642;8.070;2022-09-11T14:39:39;4.93;;;0.82;;
30215;SDS011;17028;47.642;8.070;2022-09-11T14:44:43;1.63;;;0.80;;
30215;SDS011;17028;47.642;8.070;2022-09-11T14:49:44;2.00;;;0.75;;
30215;SDS011;17028;47.642;8.070;2022-09-11T14:54:46;1.65;;;0.80;;
30215;SDS011;17028;47.642;8.070;2022-09-11T14:59:48;1.23;;;0.80;;
30215;SDS011;17028;47.642;8.070;2022-09-11T15:04:50;0.90;;;0.63;;
30215;SDS011;17028;47.642;8.070;2022-09-11T15:09:53;1.20;;;0.77;;
30215;SDS011;17028;47.642;8.070;2022-09-11T15:14:54;1.73;;;0.73;;
30215;SDS011;17028;47.642;8.070;2022-09-11T15:19:56;2.10;;;0.60;;
30215;SDS011;17028;47.642;8.070;2022-09-11T15:24:59;2.50;;;0.95;;
30215;SDS011;17028;47.642;8.070;2022-09-11T15:30:00;0.95;;;0.60;;
30215;SDS011;17028;47.642;8.070;2022-09-11T15:35:01;2.45;;;0.90;;
30215;SDS011;17028;47.642;8.070;2022-09-11T15:40:03;1.40;;;0.63;;
30215;SDS011;17028;47.642;8.070;2022-09-11T15:45:05;1.73;;;0.80;;
30215;SDS011;17028;47.642;8.070;2022-09-11T15:50:07;3.58;;;0.90;;
30215;SDS011;17028;47.642;8.070;2022-09-11T15:55:08;0.88;;;0.60;;
30215;SDS011;17028;47.642;8.070;2022-09-11T16:00:09;3.90;;;1.58;;
30215;SDS011;17028;47.642;8.070;2022-09-11T16:05:16;2.30;;;1.50;;
30215;SDS011;17028;47.642;8.070;2022-09-11T16:10:17;1.23;;;0.70;;
30215;SDS011;17028;47.642;8.070;2022-09-11T16:15:19;1.15;;;0.80;;
30215;SDS011;17028;47.642;8.070;2022-09-11T16:20:20;1.85;;;0.65;;
30215;SDS011;17028;47.642;8.070;2022-09-11T16:25:21;1.90;;;0.82;;
30215;SDS011;17028;47.642;8.070;2022-09-11T16:30:22;0.77;;;0.70;;
30215;SDS011;17028;47.642;8.070;2022-09-11T16:35:23;1.02;;;0.68;;
30215;SDS011;17028;47.642;8.070;2022-09-11T16:40:25;2.20;;;0.80;;
30215;SDS011;17028;47.642;8.070;2022-09-11T16:45:26;1.25;;;0.80;;
30215;SDS011;17028;47.642;8.070;2022-09-11T16:50:32;0.77;;;0.70;;
30215;SDS011;17028;47.642;8.070;2022-09-11T16:55:33;0.60;;;0.60;;
30215;SDS011;17028;47.642;8.070;2022-09-11T17:00:34;0.70;;;0.52;;
30215;SDS011;17028;47.642;8.070;2022-09-11T17:05:37;0.77;;;0.55;;
30215;SDS011;17028;47.642;8.070;2022-09-11T17:10:42;0.80;;;0.65;;
30215;SDS011;17028;47.642;8.070;2022-09-11T17:15:44;2.40;;;0.90;;
30215;SDS011;17028;47.642;8.070;2022-09-11T17:20:45;1.40;;;0.90;;
30215;SDS011;17028;47.642;8.070;2022-09-11T17:25:46;1.30;;;0.90;;
30215;SDS011;17028;47.642;8.070;2022-09-11T17:30:47;2.28;;;1.00;;
30215;SDS011;17028;47.642;8.070;2022-09-11T17:35:48;1.23;;;0.70;;
30215;SDS011;17028;47.642;8.070;2022-09-11T17:40:53;1.60;;;0.90;;
30215;SDS011;17028;47.642;8.070;2022-09-11T17:46:00;1.52;;;0.80;;
30215;SDS011;17028;47.642;8.070;2022-09-11T17:51:03;3.50;;;1.15;;
30215;SDS011;17028;47.642;8.070;2022-09-11T17:56:07;1.35;;;0.80;;
30215;SDS011;17028;47.642;8.070;2022-09-11T18:01:10;2.42;;;1.08;;
30215;SDS011;17028;47.642;8.070;2022-09-11T18:06:30;4.00;;;1.30;;
30215;SDS011;17028;47.642;8.070;2022-09-11T18:11:34;1.75;;;1.00;;
30215;SDS011;17028;47.642;8.070;2022-09-11T18:16:35;2.67;;;1.13;;
30215;SDS011;17028;47.642;8.070;2022-09-11T18:21:36;1.98;;;1.02;;
30215;SDS011;17028;47.642;8.070;2022-09-11T18:26:38;2.08;;;1.33;;
30215;SDS011;17028;47.642;8.070;2022-09-11T18:31:42;2.03;;;1.20;;
30215;SDS011;17028;47.642;8.070;2022-09-11T18:36:44;1.83;;;1.25;;
30215;SDS011;17028;47.642;8.070;2022-09-11T18:41:46;2.03;;;1.20;;
30215;SDS011;17028;47.642;8.070;2022-09-11T18:46:50;1.63;;;1.15;;
30215;SDS011;17028;47.642;8.070;2022-09-11T18:51:52;1.92;;;1.00;;
30215;SDS011;17028;47.642;8.070;2022-09-11T18:56:53;1.77;;;1.05;;
30215;SDS011;17028;47.642;8.070;2022-09-11T19:01:54;1.67;;;1.00;;
30215;SDS011;17028;47.642;8.070;2022-09-11T19:06:55;2.30;;;1.20;;
30215;SDS011;17028;47.642;8.070;2022-09-11T19:11:56;1.90;;;1.00;;
30215;SDS011;17028;47.642;8.070;2022-09-11T19:16:58;1.00;;;0.88;;
30215;SDS011;17028;47.642;8.070;2022-09-11T19:22:02;0.90;;;0.80;;
30215;SDS011;17028;47.642;8.070;2022-09-11T19:27:03;1.10;;;0.90;;
30215;SDS011;17028;47.642;8.070;2022-09-11T19:32:04;1.05;;;0.80;;
30215;SDS011;17028;47.642;8.070;2022-09-11T19:37:06;1.33;;;1.00;;
30215;SDS011;17028;47.642;8.070;2022-09-11T19:42:09;1.77;;;1.00;;
30215;SDS011;17028;47.642;8.070;2022-09-11T19:47:10;1.05;;;0.90;;
30215;SDS011;17028;47.642;8.070;2022-09-11T19:52:12;1.40;;;1.10;;
30215;SDS011;17028;47.642;8.070;2022-09-11T19:57:15;1.65;;;1.25;;
30215;SDS011;17028;47.642;8.070;2022-09-11T20:02:16;10.35;;;2.13;;
30215;SDS011;17028;47.642;8.070;2022-09-11T20:07:17;1.95;;;1.13;;
30215;SDS011;17028;47.642;8.070;2022-09-11T20:12:18;2.42;;;1.23;;
30215;SDS011;17028;47.642;8.070;2022-09-11T20:17:20;2.08;;;1.10;;
30215;SDS011;17028;47.642;8.070;2022-09-11T20:22:21;2.28;;;1.23;;
30215;SDS011;17028;47.642;8.070;2022-09-11T20:27:24;1.38;;;1.00;;
30215;SDS011;17028;47.642;8.070;2022-09-11T20:32:25;2.45;;;1.00;;
30215;SDS011;17028;47.642;8.070;2022-09-11T20:37:26;3.47;;;1.23;;
30215;SDS011;17028;47.642;8.070;2022-09-11T20:42:27;1.88;;;1.00;;
30215;SDS011;17028;47.642;8.070;2022-09-11T20:47:28;2.40;;;1.15;;
30215;SDS011;17028;47.642;8.070;2022-09-11T20:52:29;1.95;;;1.20;;
30215;SDS011;17028;47.642;8.070;2022-09-11T20:57:31;1.73;;;1.00;;
30215;SDS011;17028;47.642;8.070;2022-09-11T21:02:32;1.75;;;1.00;;
30215;SDS011;17028;47.642;8.070;2022-09-11T21:07:33;1.75;;;1.10;;
30215;SDS011;17028;47.642;8.070;2022-09-11T21:12:34;3.25;;;1.20;;
30215;SDS011;17028;47.642;8.070;2022-09-11T21:17:35;1.73;;;1.08;;
30215;SDS011;17028;47.642;8.070;2022-09-11T21:22:36;1.67;;;1.02;;
30215;SDS011;17028;47.642;8.070;2022-09-11T21:27:37;2.47;;;1.20;;
30215;SDS011;17028;47.642;8.070;2022-09-11T21:32:38;2.50;;;1.30;;
30215;SDS011;17028;47.642;8.070;2022-09-11T21:37:39;2.92;;;1.20;;
30215;SDS011;17028;47.642;8.070;2022-09-11T21:42:40;1.40;;;1.00;;
30215;SDS011;17028;47.642;8.070;2022-09-11T21:47:41;1.70;;;1.20;;
30215;SDS011;17028;47.642;8.070;2022-09-11T21:52:42;2.85;;;1.30;;
30215;SDS011;17028;47.642;8.070;2022-09-11T21:57:43;2.10;;;1.30;;
30215;SDS011;17028;47.642;8.070;2022-09-11T22:02:44;2.80;;;1.23;;
30215;SDS011;17028;47.642;8.070;2022-09-11T22:07:45;1.92;;;1.20;;
30215;SDS011;17028;47.642;8.070;2022-09-11T22:12:46;1.38;;;1.00;;
30215;SDS011;17028;47.642;8.070;2022-09-11T22:17:47;3.50;;;1.60;;
30215;SDS011;17028;47.642;8.070;2022-09-11T22:22:48;2.42;;;1.35;;
30215;SDS011;17028;47.642;8.070;2022-09-11T22:27:49;2.70;;;1.60;;
30215;SDS011;17028;47.642;8.070;2022-09-11T22:32:50;2.05;;;1.27;;
30215;SDS011;17028;47.642;8.070;2022-09-11T22:37:51;2.75;;;1.30;;
30215;SDS011;17028;47.642;8.070;2022-09-11T22:42:52;1.95;;;1.10;;
30215;SDS011;17028;47.642;8.070;2022-09-11T22:47:54;1.95;;;1.20;;
30215;SDS011;17028;47.642;8.070;2022-09-11T22:52:55;2.33;;;1.17;;
30215;SDS011;17028;47.642;8.070;2022-09-11T22:57:56;2.42;;;1.20;;
30215;SDS011;17028;47.642;8.070;2022-09-11T23:02:57;3.03;;;1.35;;
30215;SDS011;17028;47.642;8.070;2022-09-11T23:07:58;2.22;;;1.23;;
30215;SDS011;17028;47.642;8.070;2022-09-11T23:12:59;3.13;;;1.50;;
30215;SDS011;17028;47.642;8.070;2022-09-11T23:18:00;2.75;;;1.30;;
30215;SDS011;17028;47.642;8.070;2022-09-11T23:23:02;2.53;;;1.20;;
30215;SDS011;17028;47.642;8.070;2022-09-11T23:28:03;2.22;;;1.35;;
30215;SDS011;17028;47.642;8.070;2022-09-11T23:33:04;2.30;;;1.40;;
30215;SDS011;17028;47.642;8.070;2022-09-11T23:38:06;3.85;;;1.30;;
30215;SDS011;17028;47.642;8.070;2022-09-11T23:43:07;5.28;;;1.60;;
30215;SDS011;17028;47.642;8.070;2022-09-11T23:48:08;1.73;;;1.15;;
30215;SDS011;17028;47.642;8.070;2022-09-11T23:53:09;2.92;;;1.40;;
30215;SDS011;17028;47.642;8.070;2022-09-11T23:58:10;2.55;;;1.45;;
